Time;durP1;ratioP1;P1;durP2;ratioP2;P2;SDS_P1;SDS_P2;PMS_P1;PMS_P2;Temp;Humidity;BMP_temperature;BMP_pressure;BME280_temperature;BME280_humidity;BME280_pressure;Samples;Min_cycle;Max_cycle;Signal;HPM_P1;HPM_P2
2022/05/20 00:01:49;;;;;;;20.97;19.07;;;17.60;99.90;;;;;;5038925;28;20793;-91
2022/05/20 00:04:14;;;;;;;21.83;19.50;;;17.60;99.90;;;;;;5039014;28;20180;-93
2022/05/20 00:06:40;;;;;;;20.47;18.50;;;17.50;99.90;;;;;;5038922;28;20519;-91
2022/05/20 00:09:05;;;;;;;19.87;17.87;;;17.50;99.90;;;;;;5038535;28;20205;-93
2022/05/20 00:11:31;;;;;;;20.43;18.50;;;17.50;99.90;;;;;;5038910;28;20168;-92
2022/05/20 00:13:57;;;;;;;20.93;18.93;;;17.40;99.90;;;;;;5038960;28;20319;-93
2022/05/20 00:16:23;;;;;;;18.33;16.53;;;17.30;99.90;;;;;;5038725;28;20183;-92
2022/05/20 00:18:48;;;;;;;19.60;17.80;;;17.30;99.90;;;;;;5038744;28;20453;-92
2022/05/20 00:21:14;;;;;;;19.40;17.70;;;17.30;99.90;;;;;;5038683;28;20182;-93
2022/05/20 00:23:39;;;;;;;20.57;17.83;;;17.20;99.90;;;;;;5038437;28;20640;-92
2022/05/20 00:26:05;;;;;;;17.27;15.30;;;17.20;99.90;;;;;;5038818;28;20169;-92
2022/05/20 00:28:31;;;;;;;18.77;17.00;;;17.20;99.90;;;;;;5038672;28;20623;-91
2022/05/20 00:31:16;;;;;;;17.77;16.10;;;17.20;99.90;;;;;;5038496;28;20180;-93
2022/05/20 00:33:41;;;;;;;19.57;17.63;;;17.10;99.90;;;;;;5038441;28;20175;-94
2022/05/20 00:36:08;;;;;;;20.33;18.53;;;17.10;99.90;;;;;;5039372;28;20737;-92
2022/05/20 00:38:34;;;;;;;21.67;19.47;;;17.10;99.90;;;;;;5056090;28;20183;-92
2022/05/20 00:41:00;;;;;;;21.50;19.17;;;17.10;99.90;;;;;;5058256;28;20439;-92
2022/05/20 00:43:35;;;;;;;21.03;18.93;;;17.10;99.90;;;;;;5054993;28;20478;-90
2022/05/20 00:46:05;;;;;;;20.23;18.30;;;17.20;99.90;;;;;;5055647;28;20423;-91
2022/05/20 00:48:30;;;;;;;20.60;18.27;;;17.20;99.90;;;;;;5038594;28;20422;-91
2022/05/20 00:51:03;;;;;;;21.00;19.00;;;17.20;99.90;;;;;;5038000;28;20428;-90
2022/05/20 00:53:33;;;;;;;19.07;17.10;;;17.10;99.90;;;;;;5037839;28;20238;-90
2022/05/20 00:56:01;;;;;;;19.10;17.20;;;17.00;99.90;;;;;;5038123;28;20485;-90
2022/05/20 00:58:28;;;;;;;19.70;17.70;;;16.90;99.90;;;;;;5038139;28;20933;-90
2022/05/20 01:00:55;;;;;;;20.03;18.07;;;17.00;99.90;;;;;;5037656;28;20875;-92
2022/05/20 01:03:26;;;;;;;20.47;18.07;;;16.90;99.90;;;;;;5037725;28;20972;-93
2022/05/20 01:05:53;;;;;;;20.67;18.60;;;16.90;99.90;;;;;;5038145;28;20422;-92
2022/05/20 01:08:22;;;;;;;22.27;19.90;;;16.80;99.90;;;;;;5037790;28;20683;-93
2022/05/20 01:10:48;;;;;;;24.07;21.60;;;16.70;99.90;;;;;;5037820;28;20418;-94
2022/05/20 01:13:15;;;;;;;27.00;22.97;;;16.70;99.90;;;;;;5038066;28;20482;-92
2022/05/20 01:15:42;;;;;;;23.57;21.23;;;16.70;99.90;;;;;;5037723;28;20257;-91
2022/05/20 01:18:10;;;;;;;24.20;21.70;;;16.80;99.90;;;;;;5056483;28;20426;-92
2022/05/20 01:20:39;;;;;;;24.80;22.20;;;16.80;99.90;;;;;;5040708;28;20419;-93
2022/05/20 01:23:11;;;;;;;27.07;24.03;;;16.70;99.90;;;;;;5038186;28;20470;-92
2022/05/20 01:25:42;;;;;;;27.90;24.90;;;16.80;99.90;;;;;;5038250;28;20419;-94
2022/05/20 01:28:08;;;;;;;30.23;25.70;;;16.70;99.90;;;;;;5038799;28;20426;-94
2022/05/20 01:30:34;;;;;;;24.57;21.73;;;16.80;99.90;;;;;;5037755;28;20413;-93
2022/05/20 01:33:06;;;;;;;23.93;21.53;;;16.80;99.90;;;;;;5037442;28;20404;-94
2022/05/20 01:35:38;;;;;;;26.00;23.30;;;16.90;99.90;;;;;;5038094;28;20445;-95
2022/05/20 01:38:05;;;;;;;30.00;24.70;;;16.80;99.90;;;;;;5037154;28;20420;-93
2022/05/20 01:40:52;;;;;;;24.63;21.17;;;16.80;99.90;;;;;;5037664;28;20519;-92
2022/05/20 01:43:46;;;;;;;24.63;20.10;;;16.60;99.90;;;;;;5037674;28;20516;-93
2022/05/20 01:46:27;;;;;;;27.47;19.63;;;16.40;99.90;;;;;;5037683;28;20498;-93
2022/05/20 01:49:18;;;;;;;22.40;18.00;;;16.30;99.90;;;;;;5038282;28;20500;-93
2022/05/20 01:51:51;;;;;;;19.47;16.63;;;16.20;99.90;;;;;;5037313;28;20783;-94
2022/05/20 01:54:48;;;;;;;19.97;17.33;;;16.10;99.90;;;;;;5037876;28;20426;-93
2022/05/20 01:57:19;;;;;;;23.87;16.27;;;16.00;99.90;;;;;;5031849;28;20436;-94
2022/05/20 01:59:53;;;;;;;20.77;15.37;;;16.00;99.90;;;;;;5037553;28;20415;-92
2022/05/20 02:02:26;;;;;;;19.83;17.13;;;16.00;99.90;;;;;;5037042;28;20564;-93
2022/05/20 02:04:58;;;;;;;20.90;16.77;;;15.90;99.90;;;;;;5036795;28;20414;-93
2022/05/20 02:07:29;;;;;;;18.47;15.80;;;15.90;99.90;;;;;;5037054;28;20423;-91
2022/05/20 02:10:17;;;;;;;24.77;18.77;;;15.90;99.90;;;;;;5037745;28;20898;-93
2022/05/20 02:12:51;;;;;;;21.00;17.90;;;15.80;99.90;;;;;;5037912;28;20457;-93
2022/05/20 02:15:24;;;;;;;19.63;17.23;;;15.80;99.90;;;;;;5038593;28;20466;-94
2022/05/20 02:17:55;;;;;;;21.00;18.73;;;15.80;99.90;;;;;;5036933;28;20432;-93
2022/05/20 02:20:30;;;;;;;23.07;17.80;;;15.70;99.90;;;;;;5038262;28;20536;-94
2022/05/20 02:23:02;;;;;;;21.40;17.70;;;15.70;99.90;;;;;;5037468;28;20481;-95
2022/05/20 02:25:31;;;;;;;21.20;18.73;;;15.60;99.90;;;;;;5033646;28;20510;-95
2022/05/20 02:28:15;;;;;;;21.53;17.60;;;15.60;99.90;;;;;;5039399;28;20425;-95
2022/05/20 02:30:42;;;;;;;27.00;20.37;;;15.50;99.90;;;;;;5039143;28;20418;-94
2022/05/20 02:33:16;;;;;;;20.43;16.00;;;15.50;99.90;;;;;;5014156;28;20427;-95
2022/05/20 02:35:44;;;;;;;21.87;18.10;;;15.40;99.90;;;;;;5038294;28;20446;-94
2022/05/20 02:38:17;;;;;;;20.37;14.40;;;15.40;99.90;;;;;;5053664;28;20504;-95
2022/05/20 02:40:47;;;;;;;18.13;13.80;;;15.30;99.90;;;;;;5020653;28;20417;-94
2022/05/20 02:43:13;;;;;;;18.50;13.63;;;15.10;99.90;;;;;;5035200;28;20452;-94
2022/05/20 02:45:41;;;;;;;16.70;12.70;;;15.10;99.90;;;;;;5036379;28;20416;-94
2022/05/20 02:48:07;;;;;;;14.10;11.40;;;15.00;99.90;;;;;;5027246;28;20233;-91
2022/05/20 02:50:33;;;;;;;12.47;11.17;;;14.90;99.90;;;;;;5029069;28;20410;-92
2022/05/20 02:53:00;;;;;;;11.93;9.43;;;14.80;99.90;;;;;;5016394;28;20426;-93
2022/05/20 02:55:25;;;;;;;9.27;7.67;;;14.80;99.90;;;;;;5016097;28;20421;-94
2022/05/20 02:57:51;;;;;;;21.17;9.03;;;14.90;99.90;;;;;;5016110;28;20488;-91
2022/05/20 03:05:45;;;;;;;11.10;9.13;;;14.90;99.90;;;;;;5045371;28;20483;-93
2022/05/20 03:08:12;;;;;;;18.00;11.07;;;14.90;99.90;;;;;;5028165;28;20517;-92
2022/05/20 03:10:38;;;;;;;13.90;9.97;;;14.90;99.90;;;;;;5023791;28;20217;-93
2022/05/20 03:13:06;;;;;;;10.80;9.53;;;14.80;99.90;;;;;;5024377;28;20930;-90
2022/05/20 03:15:32;;;;;;;10.90;8.60;;;14.80;99.90;;;;;;5016151;28;20469;-91
2022/05/20 03:17:58;;;;;;;11.63;8.20;;;14.80;99.90;;;;;;5016392;28;20421;-91
2022/05/20 03:20:24;;;;;;;11.30;7.00;;;14.70;99.90;;;;;;5015657;28;20509;-91
2022/05/20 03:22:50;;;;;;;6.10;4.90;;;14.70;99.90;;;;;;5021959;28;20210;-94
2022/05/20 03:25:15;;;;;;;6.40;5.13;;;14.60;99.90;;;;;;5022416;28;20943;-89
2022/05/20 03:27:41;;;;;;;5.80;4.67;;;14.60;99.90;;;;;;5042660;28;20623;-91
2022/05/20 03:30:09;;;;;;;6.93;4.20;;;14.50;99.90;;;;;;5020039;28;20829;-93
2022/05/20 03:32:35;;;;;;;10.60;5.70;;;14.50;99.90;;;;;;5027171;28;20221;-92
2022/05/20 03:35:02;;;;;;;6.40;4.33;;;14.50;99.90;;;;;;5027290;28;20424;-89
2022/05/20 03:37:28;;;;;;;7.30;4.40;;;14.30;99.90;;;;;;5021784;28;20174;-93
2022/05/20 03:39:55;;;;;;;6.53;4.70;;;14.30;99.90;;;;;;5037402;28;20469;-95
2022/05/20 03:42:21;;;;;;;7.90;3.97;;;14.30;99.90;;;;;;5027372;28;20246;-95
2022/05/20 03:44:54;;;;;;;7.10;4.27;;;14.20;99.90;;;;;;5029976;28;20415;-94
2022/05/20 03:47:21;;;;;;;5.60;3.70;;;14.20;99.90;;;;;;5056210;28;20510;-94
2022/05/20 03:49:46;;;;;;;5.03;3.60;;;14.10;99.90;;;;;;5032695;28;20436;-93
2022/05/20 03:52:13;;;;;;;7.10;3.60;;;14.00;99.90;;;;;;5033417;28;20416;-95
2022/05/20 03:54:39;;;;;;;5.47;2.90;;;14.10;99.90;;;;;;5029201;28;20204;-94
2022/05/20 03:57:05;;;;;;;4.30;2.97;;;14.00;99.90;;;;;;5021525;28;20941;-93
2022/05/20 03:59:38;;;;;;;7.80;3.60;;;14.00;99.90;;;;;;5030079;28;20437;-93
2022/05/20 04:02:09;;;;;;;7.30;3.87;;;14.00;99.90;;;;;;5033640;28;20842;-96
2022/05/20 04:04:44;;;;;;;6.50;3.47;;;13.90;99.90;;;;;;5021459;28;20527;-95
2022/05/20 04:07:13;;;;;;;6.33;3.20;;;13.90;99.90;;;;;;5024563;28;20499;-95
2022/05/20 04:09:39;;;;;;;7.00;3.30;;;13.90;99.90;;;;;;5030373;28;20413;-92
2022/05/20 04:12:08;;;;;;;6.40;3.80;;;13.90;99.90;;;;;;5029642;28;20412;-93
2022/05/20 04:14:34;;;;;;;6.60;3.40;;;13.90;99.90;;;;;;5041755;28;20543;-94
2022/05/20 04:17:00;;;;;;;3.97;2.43;;;14.00;99.90;;;;;;5037744;28;20455;-91
2022/05/20 04:19:28;;;;;;;4.70;2.80;;;14.00;99.90;;;;;;5038206;28;20422;-95
2022/05/20 04:21:57;;;;;;;8.80;4.10;;;14.00;99.90;;;;;;5023341;28;20292;-95
2022/05/20 04:24:23;;;;;;;5.00;3.80;;;14.00;99.90;;;;;;5041492;28;20415;-95
2022/05/20 04:26:54;;;;;;;8.90;3.50;;;14.00;99.90;;;;;;5040316;28;20435;-94
2022/05/20 04:29:19;;;;;;;5.20;3.23;;;14.00;99.90;;;;;;5044841;28;20583;-93
2022/05/20 04:31:48;;;;;;;10.73;3.70;;;14.00;99.90;;;;;;5043494;28;20443;-94
2022/05/20 04:34:14;;;;;;;5.43;3.20;;;14.00;99.90;;;;;;5044550;28;20634;-94
2022/05/20 04:36:39;;;;;;;8.37;3.10;;;13.90;99.90;;;;;;5045200;28;20424;-95
2022/05/20 04:39:05;;;;;;;6.60;4.00;;;14.00;99.90;;;;;;5041345;28;20825;-94
2022/05/20 04:47:02;;;;;;;7.97;4.97;;;14.00;99.90;;;;;;5062932;28;20449;-96
2022/05/20 04:49:30;;;;;;;5.20;4.27;;;13.90;99.90;;;;;;5032752;28;20423;-95
2022/05/20 04:51:55;;;;;;;5.93;4.50;;;13.90;99.90;;;;;;5050729;28;20423;-95
2022/05/20 04:57:07;;;;;;;8.93;5.10;;;13.90;99.90;;;;;;5070861;28;20173;-96
2022/05/20 04:59:38;;;;;;;6.37;4.50;;;14.00;99.90;;;;;;5052999;28;20507;-96
2022/05/20 05:02:04;;;;;;;8.00;4.27;;;14.00;99.90;;;;;;5060075;28;20502;-93
2022/05/20 05:04:30;;;;;;;7.13;4.33;;;14.00;99.90;;;;;;5077306;28;20468;-93
2022/05/20 05:06:56;;;;;;;8.17;4.40;;;14.10;99.90;;;;;;5058287;28;20423;-96
2022/05/20 05:09:22;;;;;;;5.97;4.80;;;14.10;99.90;;;;;;5059775;28;20428;-94
2022/05/20 05:11:49;;;;;;;7.27;4.00;;;14.20;99.90;;;;;;5060277;28;20173;-93
2022/05/20 05:14:15;;;;;;;9.53;4.53;;;14.40;99.90;;;;;;5076349;28;20252;-93
2022/05/20 05:16:42;;;;;;;7.33;4.30;;;14.60;99.90;;;;;;5060027;28;20407;-92
2022/05/20 05:19:08;;;;;;;4.57;3.47;;;14.60;99.90;;;;;;5056363;28;20433;-94
2022/05/20 05:21:36;;;;;;;7.33;3.80;;;14.70;99.90;;;;;;5052564;28;20406;-96
2022/05/20 05:24:07;;;;;;;6.57;3.60;;;14.80;99.90;;;;;;5055431;28;20412;-95
2022/05/20 05:26:40;;;;;;;3.73;3.00;;;14.90;99.90;;;;;;5059547;28;20416;-94
2022/05/20 05:31:31;;;;;;;5.80;3.33;;;14.90;99.90;;;;;;5121765;22;20500;-91
2022/05/20 05:33:57;;;;;;;5.47;3.30;;;14.90;99.90;;;;;;5135417;28;20180;-92
2022/05/20 05:36:25;;;;;;;5.43;3.60;;;14.90;99.90;;;;;;5107793;28;20180;-94
2022/05/20 05:38:58;;;;;;;4.57;3.10;;;14.80;99.90;;;;;;5103600;28;20422;-95
2022/05/20 05:41:23;;;;;;;6.77;3.10;;;14.70;99.90;;;;;;5120867;28;20772;-96
2022/05/20 05:43:49;;;;;;;5.27;3.00;;;14.80;99.90;;;;;;5102840;28;20425;-96
2022/05/20 05:46:15;;;;;;;4.93;3.00;;;14.80;99.90;;;;;;5120433;28;20176;-96
2022/05/20 05:48:41;;;;;;;7.00;2.37;;;14.80;99.90;;;;;;5120205;28;20526;-95
2022/05/20 05:51:12;;;;;;;5.73;3.80;;;14.80;99.90;;;;;;5103792;28;20169;-95
2022/05/20 05:53:38;;;;;;;3.10;2.67;;;14.80;99.90;;;;;;5126565;28;20186;-95
2022/05/20 05:56:09;;;;;;;8.30;3.87;;;14.90;99.90;;;;;;5122454;28;20418;-96
2022/05/20 05:58:35;;;;;;;6.63;3.50;;;14.90;99.90;;;;;;5108160;28;20208;-96
2022/05/20 06:01:07;;;;;;;7.67;3.77;;;14.80;99.90;;;;;;5122532;28;20422;-93
2022/05/20 06:03:33;;;;;;;6.37;3.53;;;14.80;99.90;;;;;;5119493;28;20478;-93
2022/05/20 06:05:59;;;;;;;4.97;3.40;;;14.80;99.90;;;;;;5121167;28;20419;-95
2022/05/20 06:08:25;;;;;;;7.33;3.63;;;14.90;99.90;;;;;;5112860;28;20209;-95
2022/05/20 06:10:50;;;;;;;6.77;2.50;;;14.90;99.90;;;;;;5111534;28;20204;-95
2022/05/20 06:13:25;;;;;;;7.87;3.33;;;14.80;99.90;;;;;;5111147;28;20172;-91
2022/05/20 06:15:55;;;;;;;6.80;2.60;;;14.90;99.90;;;;;;5111387;28;20199;-93
2022/05/20 06:18:21;;;;;;;5.07;3.47;;;15.00;99.90;;;;;;5111397;28;21007;-93
2022/05/20 06:20:47;;;;;;;6.20;2.73;;;15.10;99.90;;;;;;5111169;28;20415;-95
2022/05/20 06:23:13;;;;;;;4.97;2.60;;;15.30;99.90;;;;;;5110470;28;20462;-94
2022/05/20 06:25:38;;;;;;;4.90;2.53;;;15.70;99.90;;;;;;5111024;28;20493;-95
2022/05/20 06:28:10;;;;;;;4.33;2.30;;;15.60;22.90;;;;;;5111194;28;20268;-96
2022/05/20 06:30:35;;;;;;;3.13;1.20;;;15.40;50.00;;;;;;5110356;28;20251;-95
2022/05/20 06:33:02;;;;;;;4.77;1.60;;;15.30;99.90;;;;;;5111014;28;20420;-95
2022/05/20 06:40:56;;;;;;;4.13;0.90;;;15.30;1.00;;;;;;5096001;28;20393;-92
2022/05/20 06:43:23;;;;;;;4.33;1.23;;;15.40;6.40;;;;;;5112939;28;20482;-95
2022/05/20 06:45:58;;;;;;;6.60;1.40;;;15.70;26.50;;;;;;5130357;28;20434;-94
2022/05/20 06:48:54;;;;;;;6.70;1.63;;;15.50;1.00;;;;;;5115304;28;20403;-93
2022/05/20 06:51:28;;;;;;;2.27;0.97;;;16.20;1.00;;;;;;5124616;28;20436;-94
2022/05/20 06:54:11;;;;;;;5.37;1.33;;;19.80;1.00;;;;;;5102007;28;20445;-96
2022/05/20 06:56:44;;;;;;;2.87;1.27;;;18.30;1.00;;;;;;5108526;28;20417;-93
2022/05/20 06:59:33;;;;;;;5.20;0.93;;;17.60;99.90;;;;;;5112895;28;20436;-94
2022/05/20 07:02:00;;;;;;;6.97;1.50;;;17.80;99.90;;;;;;5124409;28;20484;-96
2022/05/20 07:04:31;;;;;;;2.60;0.80;;;17.70;99.90;;;;;;5128973;28;20412;-96
2022/05/20 07:07:05;;;;;;;3.27;1.07;;;20.00;99.90;;;;;;5109072;28;20413;-95
2022/05/20 07:09:35;;;;;;;1.60;0.73;;;19.40;99.90;;;;;;5127674;28;20433;-94
2022/05/20 07:15:11;;;;;;;5.93;1.77;;;20.90;99.90;;;;;;5104728;28;20479;-94
2022/05/20 07:17:38;;;;;;;3.43;1.30;;;21.80;99.90;;;;;;5113890;28;20428;-95
2022/05/20 07:20:06;;;;;;;2.27;0.80;;;21.80;99.90;;;;;;5115910;28;20429;-92
2022/05/20 07:22:32;;;;;;;1.50;0.67;;;23.80;99.90;;;;;;5114339;28;20908;-94
2022/05/20 07:24:57;;;;;;;2.33;0.50;;;24.60;99.90;;;;;;5115183;28;20464;-93
2022/05/20 07:27:23;;;;;;;1.93;0.57;;;24.40;97.60;;;;;;5115151;28;20214;-94
2022/05/20 07:29:49;;;;;;;2.50;0.70;;;25.10;92.00;;;;;;5115056;28;20219;-93
2022/05/20 07:32:14;;;;;;;3.20;0.60;;;25.30;89.00;;;;;;5114700;28;20278;-94
2022/05/20 07:34:40;;;;;;;3.20;1.13;;;24.30;58.60;;;;;;5114301;28;20176;-93
2022/05/20 07:37:06;;;;;;;3.73;1.13;;;20.50;90.20;;;;;;5114330;28;20248;-94
2022/05/20 07:39:32;;;;;;;4.57;1.13;;;20.40;99.90;;;;;;5117629;28;20177;-95
2022/05/20 07:41:58;;;;;;;2.77;0.80;;;20.40;99.90;;;;;;5101492;28;20307;-96
2022/05/20 07:44:23;;;;;;;1.87;0.93;;;19.60;99.90;;;;;;5117168;28;20547;-94
2022/05/20 07:46:49;;;;;;;4.20;0.93;;;18.80;99.90;;;;;;5135071;28;20437;-94
2022/05/20 07:49:15;;;;;;;3.20;0.80;;;18.90;99.90;;;;;;5130261;28;20172;-94
2022/05/20 07:51:47;;;;;;;3.67;0.50;;;22.00;99.90;;;;;;5116725;28;20182;-93
2022/05/20 07:54:23;;;;;;;1.83;0.60;;;24.30;99.90;;;;;;5121761;28;20625;-93
2022/05/20 07:56:57;;;;;;;3.47;1.20;;;24.40;92.80;;;;;;5103343;28;20421;-92
2022/05/20 07:59:37;;;;;;;2.37;1.00;;;21.10;99.60;;;;;;5115526;28;20493;-92
2022/05/20 08:02:09;;;;;;;6.50;2.23;;;23.50;99.90;;;;;;5114228;28;20458;-93
2022/05/20 08:04:53;;;;;;;3.50;1.50;;;24.80;85.30;;;;;;5113326;28;20417;-93
2022/05/20 08:07:33;;;;;;;3.60;1.07;;;25.50;74.20;;;;;;5112743;28;20971;-93
2022/05/20 08:10:11;;;;;;;4.73;0.90;;;25.60;63.60;;;;;;5133863;28;20434;-94
2022/05/20 08:12:37;;;;;;;3.80;0.53;;;24.10;53.10;;;;;;5107230;28;20406;-92
2022/05/20 08:15:05;;;;;;;3.37;1.00;;;21.90;80.50;;;;;;5116904;22;20994;-95
2022/05/20 08:17:35;;;;;;;3.97;1.27;;;20.40;99.90;;;;;;5063807;28;20416;-92
2022/05/20 08:20:04;;;;;;;2.17;1.10;;;23.00;99.90;;;;;;5061060;28;20939;-95
2022/05/20 08:22:31;;;;;;;6.40;1.33;;;24.40;79.40;;;;;;5061130;28;21032;-93
2022/05/20 08:24:58;;;;;;;1.67;0.60;;;21.50;73.20;;;;;;5032632;28;20539;-95
2022/05/20 08:27:30;;;;;;;3.50;1.53;;;22.50;94.20;;;;;;5073901;28;20419;-95
2022/05/20 08:29:56;;;;;;;3.20;1.43;;;24.90;88.70;;;;;;5068326;28;20458;-96
2022/05/20 08:32:28;;;;;;;3.40;0.47;;;24.90;73.20;;;;;;5061280;28;20935;-96
2022/05/20 08:34:53;;;;;;;2.17;0.90;;;25.10;69.80;;;;;;5073306;28;20476;-90
2022/05/20 08:37:19;;;;;;;2.30;1.00;;;25.80;60.80;;;;;;5076367;28;20485;-94
2022/05/20 08:39:45;;;;;;;3.77;1.40;;;26.00;47.80;;;;;;5076671;28;20185;-94
2022/05/20 08:42:16;;;;;;;1.93;1.20;;;26.70;48.60;;;;;;5073266;28;20197;-90
2022/05/20 08:44:43;;;;;;;2.63;1.10;;;26.20;42.50;;;;;;5073157;28;20428;-94
2022/05/20 08:47:22;;;;;;;3.10;1.17;;;24.50;31.80;;;;;;5076369;28;21035;-96
2022/05/20 08:49:54;;;;;;;1.70;0.80;;;24.50;39.60;;;;;;5068083;28;20439;-90
2022/05/20 08:52:20;;;;;;;3.80;0.97;;;25.70;37.40;;;;;;5065243;28;20423;-91
2022/05/20 08:54:47;;;;;;;5.10;1.20;;;26.30;42.40;;;;;;5066159;28;20416;-89
2022/05/20 08:57:24;;;;;;;2.93;1.30;;;26.60;37.80;;;;;;5059755;28;20247;-93
2022/05/20 08:59:54;;;;;;;1.90;1.10;;;26.30;33.00;;;;;;5065338;28;20392;-95
2022/05/20 09:02:20;;;;;;;4.87;1.23;;;23.20;29.40;;;;;;5045367;28;20975;-94
2022/05/20 09:04:47;;;;;;;2.43;0.83;;;22.70;43.50;;;;;;5054600;28;20423;-94
2022/05/20 09:07:15;;;;;;;3.47;1.60;;;25.00;38.70;;;;;;5054580;28;20412;-91
2022/05/20 09:09:57;;;;;;;2.50;0.97;;;25.80;37.90;;;;;;5054236;28;20570;-92
2022/05/20 09:12:25;;;;;;;2.80;1.00;;;26.30;33.10;;;;;;5054705;28;20416;-93
2022/05/20 09:18:03;;;;;;;6.07;1.27;;;26.00;28.40;;;;;;5055651;28;20485;-89
2022/05/20 09:20:33;;;;;;;3.70;0.90;;;26.40;28.40;;;;;;5057144;28;20416;-92
2022/05/20 09:23:05;;;;;;;2.87;1.00;;;26.80;23.90;;;;;;5058798;28;20471;-95
2022/05/20 09:25:53;;;;;;;2.23;1.00;;;26.70;21.50;;;;;;5059170;28;20443;-94
2022/05/20 09:28:33;;;;;;;2.70;1.00;;;27.10;24.60;;;;;;5057030;28;20904;-90
2022/05/20 09:31:14;;;;;;;4.47;2.00;;;26.70;20.10;;;;;;5054900;28;20427;-91
2022/05/20 09:34:05;;;;;;;3.80;1.40;;;25.80;16.80;;;;;;5056174;28;20847;-90
2022/05/20 09:36:45;;;;;;;4.57;1.13;;;26.30;18.60;;;;;;5055972;28;20405;-93
2022/05/20 09:39:21;;;;;;;2.00;0.90;;;26.40;22.60;;;;;;5054942;28;20476;-95
2022/05/20 09:41:56;;;;;;;2.70;0.90;;;26.90;21.00;;;;;;5053831;28;20447;-96
2022/05/20 09:44:31;;;;;;;1.63;1.20;;;27.00;21.90;;;;;;5055474;28;20443;-93
2022/05/20 09:47:09;;;;;;;1.83;1.00;;;27.20;23.80;;;;;;5054213;28;20827;-95
2022/05/20 09:49:52;;;;;;;3.17;1.00;;;26.10;12.60;;;;;;5055074;28;20415;-94
2022/05/20 09:52:33;;;;;;;1.40;0.60;;;26.20;11.90;;;;;;5053841;28;20773;-93
2022/05/20 09:55:12;;;;;;;3.63;0.93;;;26.60;18.20;;;;;;5056139;28;20428;-96
2022/05/20 09:57:45;;;;;;;2.23;1.00;;;26.90;20.60;;;;;;5054129;28;20414;-93
2022/05/20 10:00:17;;;;;;;4.53;1.73;;;27.00;18.30;;;;;;5055213;28;20447;-95
2022/05/20 10:02:55;;;;;;;3.03;1.07;;;26.60;13.40;;;;;;5057402;28;20463;-94
2022/05/20 10:05:48;;;;;;;2.53;0.80;;;26.70;15.30;;;;;;5065217;28;20420;-92
2022/05/20 10:08:32;;;;;;;4.23;1.17;;;26.50;13.30;;;;;;5076342;28;20427;-96
2022/05/20 10:11:16;;;;;;;5.27;1.60;;;26.50;21.10;;;;;;5075395;28;20427;-96
2022/05/20 10:19:48;;;;;;;5.93;1.63;;;25.80;10.50;;;;;;5678467;22;20478;-95
2022/05/20 10:23:19;;;;;;;5.03;1.53;;;25.60;13.70;;;;;;5290366;22;20186;-94
2022/05/20 10:26:43;;;;;;;2.43;1.20;;;26.10;16.00;;;;;;5071190;28;20441;-93
2022/05/20 10:32:49;;;;;;;2.50;1.50;;;27.00;15.10;;;;;;5072167;28;20435;-94
2022/05/20 10:35:24;;;;;;;1.80;1.13;;;26.60;10.50;;;;;;5053939;28;20632;-94
2022/05/20 10:38:23;;;;;;;2.83;1.07;;;27.20;13.40;;;;;;5069591;28;20426;-94
2022/05/20 10:41:26;;;;;;;4.43;1.17;;;27.00;8.50;;;;;;5049550;28;20486;-94
2022/05/20 10:50:25;;;;;;;2.10;1.40;;;27.20;13.40;;;;;;5070910;28;20415;-94
2022/05/20 10:53:44;;;;;;;2.10;1.13;;;26.00;1.00;;;;;;5048028;28;20430;-95
2022/05/20 10:57:01;;;;;;;1.90;1.27;;;26.10;14.60;;;;;;5133734;22;20485;-95
2022/05/20 11:00:05;;;;;;;2.63;1.33;;;25.80;15.10;;;;;;5117843;22;20414;-96
2022/05/20 11:02:54;;;;;;;2.50;2.00;;;24.50;3.00;;;;;;5091810;28;20486;-94
2022/05/20 11:05:49;;;;;;;1.73;1.17;;;25.20;6.50;;;;;;5091320;28;20434;-95
2022/05/20 11:08:47;;;;;;;2.60;1.70;;;25.40;8.10;;;;;;5116629;22;20572;-95
2022/05/20 11:11:37;;;;;;;1.93;1.53;;;24.70;3.30;;;;;;5123876;28;20431;-95
2022/05/20 11:14:09;;;;;;;4.30;1.80;;;24.60;9.20;;;;;;5103312;28;20414;-95
2022/05/20 11:16:34;;;;;;;4.73;1.50;;;25.30;7.10;;;;;;5119375;28;20986;-95
2022/05/20 11:19:24;;;;;;;3.20;1.40;;;25.90;9.60;;;;;;5120884;28;20453;-95
2022/05/20 11:21:50;;;;;;;2.30;1.37;;;26.20;11.90;;;;;;5124428;28;20224;-95
2022/05/20 11:24:37;;;;;;;5.20;1.43;;;26.50;19.90;;;;;;5154394;22;20426;-93
2022/05/20 11:27:50;;;;;;;5.03;1.67;;;26.20;5.50;;;;;;5141904;22;20225;-95
2022/05/20 11:30:55;;;;;;;2.30;1.20;;;25.80;3.50;;;;;;5051600;28;20452;-96
2022/05/20 11:33:57;;;;;;;4.33;1.60;;;25.10;2.10;;;;;;5075785;22;20479;-95
2022/05/20 11:36:52;;;;;;;1.87;1.50;;;24.40;2.30;;;;;;5056951;28;20416;-95
2022/05/20 11:39:30;;;;;;;4.23;2.07;;;24.20;4.10;;;;;;5070282;28;20413;-95
2022/05/20 11:42:31;;;;;;;1.87;1.47;;;24.20;13.70;;;;;;5069117;28;20463;-96
2022/05/20 11:45:10;;;;;;;4.03;1.30;;;24.90;18.20;;;;;;4986121;28;20419;-96
2022/05/20 11:47:51;;;;;;;3.10;1.60;;;26.10;23.90;;;;;;5042660;28;20431;-96
2022/05/20 11:50:55;;;;;;;2.90;1.90;;;26.00;11.00;;;;;;5066343;28;20975;-96
2022/05/20 11:53:35;;;;;;;1.97;1.77;;;25.90;4.70;;;;;;5052038;28;20426;-95
2022/05/20 11:56:31;;;;;;;3.53;1.50;;;26.10;2.40;;;;;;5069052;28;20430;-95
2022/05/20 11:59:22;;;;;;;2.53;1.60;;;26.10;9.30;;;;;;5054469;28;20432;-95
2022/05/20 12:02:11;;;;;;;2.80;1.23;;;25.80;1.00;;;;;;5074105;28;20416;-95
2022/05/20 12:05:13;;;;;;;2.67;1.33;;;25.20;1.00;;;;;;5071535;28;20444;-96
2022/05/20 12:07:44;;;;;;;2.47;1.60;;;25.10;1.00;;;;;;5080212;28;20435;-94
2022/05/20 12:13:09;;;;;;;3.90;1.70;;;24.50;1.00;;;;;;5126861;22;20495;-94
2022/05/20 12:16:09;;;;;;;3.07;1.47;;;24.00;1.00;;;;;;5130225;28;20175;-95
2022/05/20 12:24:44;;;;;;;1.83;1.03;;;24.30;1.00;;;;;;5120378;28;20437;-94
2022/05/20 12:27:25;;;;;;;5.03;2.17;;;23.90;1.90;;;;;;5578830;22;21530;-93
2022/05/20 12:30:07;;;;;;;4.63;1.60;;;23.80;1.00;;;;;;5079002;28;20451;-94
2022/05/20 12:32:59;;;;;;;2.97;1.77;;;24.00;4.60;;;;;;5615665;22;20492;-94
2022/05/20 12:35:34;;;;;;;2.73;1.50;;;23.80;2.00;;;;;;5071415;28;20416;-95
2022/05/20 12:39:06;;;;;;;3.00;1.47;;;23.70;10.60;;;;;;5077611;28;20470;-95
2022/05/20 12:42:37;;;;;;;3.47;1.50;;;23.80;3.30;;;;;;5061008;28;20469;-95
2022/05/20 12:47:33;;;;;;;2.50;2.00;;;23.90;2.00;;;;;;5166323;22;20493;-95
2022/05/20 12:50:10;;;;;;;2.23;1.97;;;23.80;1.00;;;;;;5114935;28;20160;-94
2022/05/20 12:52:50;;;;;;;3.70;1.87;;;23.70;1.00;;;;;;5113441;28;20398;-95
2022/05/20 12:55:24;;;;;;;4.10;2.00;;;23.90;11.60;;;;;;5112081;28;20418;-95
2022/05/20 12:58:05;;;;;;;3.73;1.40;;;23.90;17.20;;;;;;5107179;28;20433;-95
2022/05/20 13:01:01;;;;;;;1.93;1.70;;;23.90;15.20;;;;;;5108992;28;20417;-92
2022/05/20 13:03:45;;;;;;;3.63;1.73;;;24.00;3.10;;;;;;5110163;28;20481;-95
2022/05/20 13:09:01;;;;;;;2.40;1.93;;;24.10;1.00;;;;;;5154144;22;20814;-95
2022/05/20 13:11:42;;;;;;;2.20;1.20;;;24.50;1.40;;;;;;5068378;28;20181;-96
2022/05/20 13:14:13;;;;;;;2.60;1.07;;;24.70;1.00;;;;;;5051434;28;20432;-96
2022/05/20 13:17:08;;;;;;;3.97;1.90;;;24.50;1.00;;;;;;5056682;28;20397;-96
2022/05/20 13:19:47;;;;;;;2.43;1.30;;;24.50;1.70;;;;;;5058986;28;20420;-95
2022/05/20 13:22:53;;;;;;;3.60;1.63;;;24.50;1.00;;;;;;5045144;28;20456;-96
2022/05/20 13:25:21;;;;;;;2.23;1.30;;;25.00;1.00;;;;;;5065473;28;20436;-96
2022/05/20 13:27:48;;;;;;;3.77;1.97;;;25.20;1.00;;;;;;5055179;28;20466;-96
2022/05/20 13:30:31;;;;;;;3.37;1.60;;;24.60;1.00;;;;;;5080718;22;20477;-93
2022/05/20 13:33:21;;;;;;;1.83;1.20;;;24.70;1.00;;;;;;5098370;28;20458;-95
2022/05/20 13:36:26;;;;;;;3.37;1.70;;;24.70;1.00;;;;;;5135731;28;20430;-96
2022/05/20 13:39:11;;;;;;;2.60;1.60;;;24.30;1.00;;;;;;5118031;28;20416;-96
2022/05/20 13:41:39;;;;;;;1.90;1.60;;;24.00;1.00;;;;;;5226119;22;20448;-92
2022/05/20 13:44:19;;;;;;;1.33;0.97;;;24.10;1.00;;;;;;5152387;22;20406;-91
2022/05/20 13:49:37;;;;;;;3.27;1.07;;;23.60;1.00;;;;;;5178082;22;20540;-96
2022/05/20 13:57:49;;;;;;;1.73;1.10;;;23.90;1.00;;;;;;5204223;23;20477;-91
2022/05/20 14:00:52;;;;;;;3.43;1.20;;;23.90;2.10;;;;;;5013805;28;20414;-94
2022/05/20 14:03:26;;;;;;;1.90;1.50;;;23.40;1.00;;;;;;5010723;28;20942;-93
2022/05/20 14:05:57;;;;;;;3.07;1.57;;;23.40;1.00;;;;;;5002676;28;20426;-96
2022/05/20 14:08:25;;;;;;;2.70;1.30;;;23.00;1.00;;;;;;5004150;28;20430;-95
2022/05/20 14:10:56;;;;;;;2.90;1.73;;;23.30;1.00;;;;;;5009022;28;20494;-94
2022/05/20 14:13:24;;;;;;;2.70;1.70;;;23.30;1.00;;;;;;5007317;28;20463;-91
2022/05/20 14:15:52;;;;;;;2.17;1.13;;;23.80;1.00;;;;;;5008559;28;20457;-91
2022/05/20 14:18:40;;;;;;;1.90;1.00;;;23.80;1.00;;;;;;5004433;28;20422;-94
2022/05/20 14:21:12;;;;;;;1.43;1.33;;;23.90;1.00;;;;;;5029023;28;20414;-91
2022/05/20 14:24:02;;;;;;;3.67;2.63;;;23.60;1.00;;;;;;5007552;28;20473;-91
2022/05/20 14:26:27;;;;;;;2.67;1.30;;;23.60;1.00;;;;;;5002399;28;20484;-91